Time;durP1;ratioP1;P1;durP2;ratioP2;P2;SDS_P1;SDS_P2;PMS_P1;PMS_P2;Temp;Humidity;BMP_temperature;BMP_pressure;BME280_temperature;BME280_humidity;BME280_pressure;Samples;Min_cycle;Max_cycle;Signal;HPM_P1;HPM_P2
2022/05/13 00:00:13;;;;;;;8.68;3.40;;;10.40;99.90;;;;;;4996027;28;20625;-73
2022/05/13 00:02:40;;;;;;;5.15;3.10;;;10.40;99.90;;;;;;4994654;28;20052;-73
2022/05/13 00:05:07;;;;;;;6.43;3.45;;;10.40;99.90;;;;;;4987151;28;20046;-73
2022/05/13 00:07:32;;;;;;;5.95;3.78;;;10.40;99.90;;;;;;4988842;28;20081;-73
2022/05/13 00:10:05;;;;;;;5.47;3.15;;;10.50;99.90;;;;;;4958211;28;20492;-73
2022/05/13 00:12:35;;;;;;;5.75;3.30;;;10.40;99.90;;;;;;4989068;28;20050;-73
2022/05/13 00:15:02;;;;;;;7.43;3.35;;;10.50;99.90;;;;;;4992205;28;20465;-73
2022/05/13 00:17:28;;;;;;;7.45;3.50;;;10.40;99.90;;;;;;4992464;28;20034;-73
2022/05/13 00:19:55;;;;;;;5.50;3.80;;;10.40;99.90;;;;;;4994517;28;20092;-73
2022/05/13 00:22:21;;;;;;;8.13;3.70;;;10.40;99.90;;;;;;5004236;28;20128;-73
2022/05/13 00:24:47;;;;;;;4.70;3.53;;;10.30;99.90;;;;;;4995610;28;20068;-74
2022/05/13 00:27:13;;;;;;;6.28;3.58;;;10.40;99.90;;;;;;4965290;28;20038;-73
2022/05/13 00:29:39;;;;;;;11.57;3.78;;;10.30;99.90;;;;;;4971572;28;20041;-73
2022/05/13 00:32:05;;;;;;;5.05;3.40;;;10.30;99.90;;;;;;4994692;28;20044;-73
2022/05/13 00:34:33;;;;;;;5.43;3.35;;;10.40;99.90;;;;;;4970697;28;20053;-73
2022/05/13 00:36:59;;;;;;;5.30;3.03;;;10.30;99.90;;;;;;4977849;28;20034;-73
2022/05/13 00:39:25;;;;;;;7.32;3.70;;;10.40;99.90;;;;;;4980418;28;20077;-73
2022/05/13 00:41:53;;;;;;;7.45;3.53;;;10.40;99.90;;;;;;5001722;28;20510;-73
2022/05/13 00:44:19;;;;;;;7.10;3.08;;;10.30;99.90;;;;;;5011912;28;20495;-73
2022/05/13 00:46:45;;;;;;;6.05;3.13;;;10.40;99.90;;;;;;5004415;28;20450;-73
2022/05/13 00:49:14;;;;;;;7.07;3.03;;;10.40;99.90;;;;;;4974591;28;20042;-73
2022/05/13 00:51:45;;;;;;;6.85;3.10;;;10.40;99.90;;;;;;4989307;28;20172;-73
2022/05/13 00:54:13;;;;;;;6.28;2.80;;;10.50;99.90;;;;;;4999776;28;20053;-73
2022/05/13 00:56:43;;;;;;;5.30;3.53;;;10.50;99.90;;;;;;4993293;28;20041;-73
2022/05/13 00:59:12;;;;;;;4.22;2.60;;;10.50;99.90;;;;;;5001728;28;20526;-73
2022/05/13 01:01:38;;;;;;;10.73;4.10;;;10.50;99.90;;;;;;5002602;28;20052;-73
2022/05/13 01:04:13;;;;;;;6.50;3.03;;;10.60;99.90;;;;;;5013743;28;20445;-73
2022/05/13 01:06:43;;;;;;;6.20;3.17;;;10.60;99.90;;;;;;5006941;28;20116;-73
2022/05/13 01:09:09;;;;;;;7.68;3.25;;;10.70;99.90;;;;;;5003114;28;20051;-73
2022/05/13 01:11:37;;;;;;;7.03;3.40;;;10.60;99.90;;;;;;4998402;28;20034;-73
2022/05/13 01:14:08;;;;;;;5.47;2.90;;;10.70;99.90;;;;;;5001122;28;20092;-74
2022/05/13 01:18:04;;;;;;;5.78;3.10;;;10.70;99.90;;;;;;4985395;28;20034;-72
2022/05/13 01:19:20;;;;;;;9.85;3.40;;;10.70;99.90;;;;;;4997578;28;20119;-72
2022/05/13 01:21:48;;;;;;;7.13;3.13;;;10.80;99.90;;;;;;5004913;28;20049;-73
2022/05/13 01:24:15;;;;;;;7.60;3.40;;;10.80;99.90;;;;;;5017505;28;20049;-73
2022/05/13 01:26:41;;;;;;;6.88;3.03;;;10.80;99.90;;;;;;4986121;28;20091;-73
2022/05/13 01:29:07;;;;;;;10.65;3.45;;;10.80;99.90;;;;;;4996661;28;20519;-74
2022/05/13 01:31:35;;;;;;;5.88;2.80;;;10.80;99.90;;;;;;4974785;28;20040;-73
2022/05/13 01:34:05;;;;;;;8.27;3.05;;;10.80;99.90;;;;;;4991516;28;20034;-73
2022/05/13 01:36:31;;;;;;;6.25;2.78;;;10.80;99.90;;;;;;4978357;28;20046;-73
2022/05/13 01:38:58;;;;;;;8.32;2.97;;;10.80;99.90;;;;;;4997868;28;20404;-74
2022/05/13 01:41:25;;;;;;;5.43;2.67;;;10.80;99.90;;;;;;4964023;28;20042;-73
2022/05/13 01:43:52;;;;;;;10.02;2.85;;;10.80;99.90;;;;;;4974149;28;20455;-73
2022/05/13 01:46:20;;;;;;;5.25;2.53;;;10.80;99.90;;;;;;4988052;28;20037;-73
2022/05/13 01:48:46;;;;;;;6.90;2.72;;;10.80;99.90;;;;;;5007888;28;20038;-74
2022/05/13 01:51:13;;;;;;;7.22;3.00;;;10.80;99.90;;;;;;4962334;28;20049;-73
2022/05/13 01:53:39;;;;;;;5.70;2.80;;;10.80;99.90;;;;;;5010231;28;20129;-73
2022/05/13 01:56:05;;;;;;;6.30;2.63;;;10.80;99.90;;;;;;4994284;28;20098;-74
2022/05/13 01:58:31;;;;;;;5.35;2.83;;;10.80;99.90;;;;;;4979365;28;20044;-73
2022/05/13 02:00:59;;;;;;;5.57;2.80;;;10.80;99.90;;;;;;4979775;28;20124;-73
2022/05/13 02:03:45;;;;;;;6.97;3.30;;;10.80;99.90;;;;;;4981390;28;20553;-73
2022/05/13 02:06:22;;;;;;;4.78;2.80;;;10.90;99.90;;;;;;5003298;28;20124;-73
2022/05/13 02:08:50;;;;;;;6.32;2.92;;;10.80;99.90;;;;;;4998882;28;20058;-73
2022/05/13 02:11:18;;;;;;;6.38;2.90;;;10.80;99.90;;;;;;4983229;28;20038;-73
2022/05/13 02:13:44;;;;;;;6.15;2.80;;;10.80;99.90;;;;;;4998895;28;20038;-73
2022/05/13 02:16:12;;;;;;;9.18;2.75;;;10.80;99.90;;;;;;4993003;28;20037;-73
2022/05/13 02:18:38;;;;;;;4.38;2.78;;;10.80;99.90;;;;;;4976044;28;20050;-73
2022/05/13 02:21:04;;;;;;;5.18;2.72;;;10.80;99.90;;;;;;4991554;28;20050;-73
2022/05/13 02:23:30;;;;;;;6.15;3.08;;;10.80;99.90;;;;;;4980019;28;20042;-74
2022/05/13 02:26:05;;;;;;;6.78;3.08;;;10.80;99.90;;;;;;4991346;28;20045;-73
2022/05/13 02:28:31;;;;;;;6.95;3.33;;;10.70;99.90;;;;;;4995286;28;20057;-73
2022/05/13 02:30:59;;;;;;;5.70;3.00;;;10.70;99.90;;;;;;5002599;28;20124;-73
2022/05/13 02:33:26;;;;;;;7.65;3.05;;;10.70;99.90;;;;;;4984424;28;20049;-73
2022/05/13 02:35:51;;;;;;;7.03;3.28;;;10.70;99.90;;;;;;5006077;28;20081;-73
2022/05/13 02:38:17;;;;;;;6.28;3.20;;;10.70;99.90;;;;;;4997325;28;20073;-74
2022/05/13 02:43:31;;;;;;;5.18;3.08;;;10.70;99.90;;;;;;4995999;28;20054;-74
2022/05/13 02:45:57;;;;;;;7.30;3.58;;;10.70;99.90;;;;;;4973903;28;20458;-73
2022/05/13 02:48:23;;;;;;;8.93;3.13;;;10.70;99.90;;;;;;4981983;28;20145;-73
2022/05/13 02:50:49;;;;;;;6.28;2.90;;;10.60;99.90;;;;;;4990163;28;20044;-73
2022/05/13 02:53:15;;;;;;;7.43;3.10;;;10.60;99.90;;;;;;4975021;28;20038;-73
2022/05/13 02:55:41;;;;;;;8.43;3.28;;;10.60;99.90;;;;;;4983544;28;20503;-73
2022/05/13 02:58:06;;;;;;;8.07;3.47;;;10.50;99.90;;;;;;4992341;28;20088;-73
2022/05/13 03:00:33;;;;;;;4.82;2.85;;;10.50;99.90;;;;;;4982570;28;20053;-73
2022/05/13 03:02:59;;;;;;;7.00;3.70;;;10.50;99.90;;;;;;4962158;28;20041;-74
2022/05/13 03:05:25;;;;;;;5.38;3.10;;;10.50;99.90;;;;;;4987538;28;20054;-73
2022/05/13 03:07:51;;;;;;;8.65;3.65;;;10.40;99.90;;;;;;5005805;28;20155;-73
2022/05/13 03:10:17;;;;;;;8.27;3.15;;;10.30;99.90;;;;;;4967739;28;20132;-73
2022/05/13 03:12:43;;;;;;;5.68;3.00;;;10.30;99.90;;;;;;5004816;28;20455;-73
2022/05/13 03:15:11;;;;;;;7.60;3.22;;;10.30;99.90;;;;;;4952540;28;20117;-72
2022/05/13 03:17:37;;;;;;;5.82;2.78;;;10.30;99.90;;;;;;4990806;28;20048;-72
2022/05/13 03:20:06;;;;;;;5.15;2.88;;;10.20;99.90;;;;;;4975284;28;20050;-73
2022/05/13 03:22:32;;;;;;;8.02;3.40;;;10.20;99.90;;;;;;4961441;28;20038;-73
2022/05/13 03:25:07;;;;;;;9.55;3.20;;;10.20;99.90;;;;;;5078098;28;20951;-74
2022/05/13 03:27:33;;;;;;;7.50;3.15;;;10.20;99.90;;;;;;5053026;28;20045;-74
2022/05/13 03:29:58;;;;;;;7.03;3.15;;;10.20;99.90;;;;;;5068386;28;20056;-74
2022/05/13 03:32:24;;;;;;;7.65;3.15;;;10.10;99.90;;;;;;5058296;28;20041;-74
2022/05/13 03:34:50;;;;;;;9.10;2.95;;;10.10;99.90;;;;;;5071155;28;20033;-74
2022/05/13 03:37:16;;;;;;;12.88;3.53;;;10.10;99.90;;;;;;5075444;28;20068;-74
2022/05/13 03:39:42;;;;;;;8.27;3.10;;;10.10;99.90;;;;;;5067712;28;20116;-74
2022/05/13 03:42:09;;;;;;;8.15;3.00;;;10.10;99.90;;;;;;5053604;28;20059;-74
2022/05/13 03:44:36;;;;;;;7.10;3.08;;;10.10;99.90;;;;;;5051798;28;20040;-74
2022/05/13 03:47:03;;;;;;;6.68;3.17;;;10.10;99.90;;;;;;5054990;28;20042;-73
2022/05/13 03:49:29;;;;;;;9.02;3.25;;;10.10;99.90;;;;;;5028372;28;20036;-74
2022/05/13 03:51:55;;;;;;;9.57;3.42;;;10.10;99.90;;;;;;5048629;28;20098;-74
2022/05/13 03:54:20;;;;;;;5.72;3.28;;;10.10;99.90;;;;;;5070314;28;20036;-74
2022/05/13 03:56:46;;;;;;;9.73;3.55;;;10.10;99.90;;;;;;5049447;28;20045;-74
2022/05/13 03:59:12;;;;;;;7.85;3.08;;;10.10;99.90;;;;;;5082594;28;20036;-74
2022/05/13 04:01:37;;;;;;;9.73;3.50;;;10.10;99.90;;;;;;5053603;28;20045;-74
2022/05/13 04:04:03;;;;;;;7.68;3.28;;;10.10;99.90;;;;;;5056892;28;20047;-74
2022/05/13 04:09:13;;;;;;;14.85;4.75;;;10.10;99.90;;;;;;5048816;28;20053;-74
2022/05/13 04:11:41;;;;;;;10.00;3.50;;;10.10;99.90;;;;;;5038137;28;20032;-74
2022/05/13 04:16:54;;;;;;;9.10;3.30;;;10.10;99.90;;;;;;5069213;28;20522;-74
2022/05/13 04:19:20;;;;;;;10.07;3.05;;;10.10;99.90;;;;;;5060689;28;20045;-74
2022/05/13 04:21:47;;;;;;;5.80;2.97;;;10.10;99.90;;;;;;5049251;28;20040;-74
2022/05/13 04:24:18;;;;;;;15.32;4.10;;;10.20;99.90;;;;;;5063623;28;20084;-74
2022/05/13 04:26:47;;;;;;;8.80;3.28;;;10.20;99.90;;;;;;5045132;28;20068;-74
2022/05/13 04:29:13;;;;;;;12.05;4.03;;;10.20;99.90;;;;;;5042343;28;20045;-74
2022/05/13 04:31:41;;;;;;;9.23;3.58;;;10.20;99.90;;;;;;5057666;28;20043;-74
2022/05/13 04:34:08;;;;;;;20.90;5.30;;;10.20;99.90;;;;;;5051024;28;20110;-74
2022/05/13 04:36:34;;;;;;;13.90;4.50;;;10.20;99.90;;;;;;5048399;28;20041;-74
2022/05/13 04:39:00;;;;;;;8.73;3.42;;;10.30;99.90;;;;;;5056583;28;20387;-74
2022/05/13 04:44:14;;;;;;;9.32;3.33;;;10.30;99.90;;;;;;5042695;28;20037;-74
2022/05/13 04:46:40;;;;;;;11.60;3.90;;;10.30;99.90;;;;;;5047899;28;20033;-74
2022/05/13 04:49:06;;;;;;;10.80;3.30;;;10.30;99.90;;;;;;5047392;28;20033;-74
2022/05/13 04:51:32;;;;;;;8.50;3.75;;;10.40;99.90;;;;;;5036782;28;20118;-74
2022/05/13 04:53:58;;;;;;;9.15;3.67;;;10.40;99.90;;;;;;5016171;28;20083;-74
2022/05/13 04:56:27;;;;;;;11.68;4.43;;;10.40;99.90;;;;;;5073615;28;20107;-74
2022/05/13 04:58:53;;;;;;;13.48;4.13;;;10.40;99.90;;;;;;5062137;28;20036;-75
2022/05/13 05:01:20;;;;;;;12.82;4.13;;;10.40;99.90;;;;;;5035259;28;20044;-74
2022/05/13 05:03:46;;;;;;;10.23;3.50;;;10.40;99.90;;;;;;5058211;28;20057;-74
2022/05/13 05:06:14;;;;;;;12.52;4.00;;;10.50;99.90;;;;;;5055527;28;20341;-73
2022/05/13 05:08:41;;;;;;;12.27;4.10;;;10.40;99.90;;;;;;5056906;28;20036;-73
2022/05/13 05:11:08;;;;;;;13.13;4.05;;;10.50;99.90;;;;;;5054526;28;20048;-74
2022/05/13 05:13:39;;;;;;;12.90;4.40;;;10.50;99.90;;;;;;5057921;28;20041;-74
2022/05/13 05:16:06;;;;;;;14.48;4.63;;;10.50;99.90;;;;;;5045437;28;20047;-74
2022/05/13 05:18:33;;;;;;;11.48;5.05;;;10.50;99.90;;;;;;5036187;28;20060;-74
2022/05/13 05:20:59;;;;;;;18.15;4.82;;;10.60;99.90;;;;;;5023681;28;20052;-74
2022/05/13 05:23:29;;;;;;;13.13;4.90;;;10.60;99.90;;;;;;5053179;28;20059;-74
2022/05/13 05:25:55;;;;;;;25.63;7.00;;;10.60;99.90;;;;;;5054287;28;21728;-74
2022/05/13 05:28:21;;;;;;;14.65;4.50;;;10.70;99.90;;;;;;5047900;28;20164;-73
2022/05/13 05:30:48;;;;;;;12.25;4.63;;;10.70;99.90;;;;;;5050973;28;20114;-74
2022/05/13 05:33:14;;;;;;;15.77;4.53;;;10.80;99.90;;;;;;5038098;28;20040;-74
2022/05/13 05:35:41;;;;;;;13.38;4.40;;;10.80;99.90;;;;;;5019027;28;20108;-75
2022/05/13 05:38:07;;;;;;;17.55;5.40;;;10.80;99.90;;;;;;5042970;28;20048;-75
2022/05/13 05:40:34;;;;;;;21.42;6.13;;;10.90;99.90;;;;;;5052187;28;20048;-75
2022/05/13 05:43:05;;;;;;;14.27;4.78;;;10.90;99.90;;;;;;5057466;28;20421;-74
2022/05/13 05:45:31;;;;;;;15.25;4.78;;;11.00;99.90;;;;;;5050819;28;20032;-74
2022/05/13 05:47:57;;;;;;;46.97;11.30;;;11.10;99.90;;;;;;5046943;28;20036;-74
2022/05/13 05:50:24;;;;;;;9.10;4.50;;;11.10;99.90;;;;;;5033084;28;20052;-74
2022/05/13 05:52:50;;;;;;;11.75;5.07;;;11.10;99.90;;;;;;5033992;28;20045;-74
2022/05/13 05:58:13;;;;;;;18.65;5.28;;;11.20;99.90;;;;;;5053202;28;20040;-73
2022/05/13 06:00:41;;;;;;;17.80;5.38;;;11.20;99.90;;;;;;5037357;28;20506;-73
2022/05/13 06:03:07;;;;;;;17.23;5.10;;;11.30;99.90;;;;;;5033275;28;20042;-73
2022/05/13 06:05:33;;;;;;;17.33;5.07;;;11.30;99.90;;;;;;5031660;28;20400;-73
2022/05/13 06:08:03;;;;;;;16.92;5.18;;;11.30;99.90;;;;;;5045848;28;20420;-73
2022/05/13 06:10:30;;;;;;;20.20;5.82;;;11.30;99.90;;;;;;5037715;28;20117;-73
2022/05/13 06:12:56;;;;;;;14.98;5.03;;;11.40;99.90;;;;;;5042132;28;20329;-74
2022/05/13 06:15:22;;;;;;;19.30;5.57;;;11.50;99.90;;;;;;5035665;28;20031;-73
2022/05/13 06:17:51;;;;;;;12.82;5.78;;;11.60;99.90;;;;;;5046703;28;20037;-75
2022/05/13 06:20:23;;;;;;;12.10;5.38;;;11.80;99.90;;;;;;5051391;28;20087;-73
2022/05/13 06:22:49;;;;;;;16.70;5.38;;;11.80;99.90;;;;;;5029291;28;20124;-74
2022/05/13 06:25:19;;;;;;;16.08;5.57;;;11.90;99.90;;;;;;5022362;28;20041;-74
2022/05/13 06:27:46;;;;;;;21.75;6.25;;;12.00;99.90;;;;;;5014892;28;20072;-73
2022/05/13 06:30:17;;;;;;;17.90;5.88;;;12.10;99.90;;;;;;5037580;28;20044;-73
2022/05/13 06:32:43;;;;;;;14.18;5.40;;;12.30;99.90;;;;;;5033163;28;20037;-74
2022/05/13 06:35:10;;;;;;;11.50;4.95;;;12.40;99.90;;;;;;5050217;28;20037;-74
2022/05/13 06:37:36;;;;;;;20.30;5.85;;;12.60;99.90;;;;;;5014841;28;20245;-73
2022/05/13 06:40:04;;;;;;;14.02;4.93;;;12.70;99.90;;;;;;5033716;28;20517;-73
2022/05/13 06:42:29;;;;;;;10.57;5.38;;;12.90;99.90;;;;;;5046656;28;20041;-74
2022/05/13 06:44:55;;;;;;;12.35;4.43;;;13.00;99.90;;;;;;5032372;28;20036;-74
2022/05/13 06:47:21;;;;;;;10.40;4.47;;;13.00;99.90;;;;;;5039882;28;20063;-74
2022/05/13 06:49:47;;;;;;;12.23;4.70;;;13.10;99.90;;;;;;5042555;28;20067;-74
2022/05/13 06:52:13;;;;;;;18.00;4.85;;;13.20;99.90;;;;;;5028237;28;20163;-74
2022/05/13 06:54:43;;;;;;;14.38;4.22;;;13.30;99.90;;;;;;5038439;28;20032;-75
2022/05/13 06:57:10;;;;;;;12.48;4.80;;;13.30;99.90;;;;;;5045448;28;20045;-74
2022/05/13 06:59:36;;;;;;;12.05;4.50;;;13.30;99.90;;;;;;5051824;28;20044;-75
2022/05/13 07:02:02;;;;;;;11.95;4.38;;;13.30;99.90;;;;;;5041153;28;20056;-74
2022/05/13 07:04:28;;;;;;;15.57;4.90;;;13.30;99.90;;;;;;5052315;28;20036;-74
2022/05/13 07:06:53;;;;;;;10.48;3.80;;;13.40;99.90;;;;;;5028817;28;20048;-75
2022/05/13 07:09:19;;;;;;;9.27;3.40;;;13.40;99.90;;;;;;5040312;28;20044;-74
2022/05/13 07:11:45;;;;;;;14.45;3.90;;;13.50;99.90;;;;;;5045994;28;20083;-74
2022/05/13 07:14:12;;;;;;;11.52;3.60;;;13.50;99.90;;;;;;5015049;28;20090;-73
2022/05/13 07:16:38;;;;;;;7.13;3.22;;;13.60;99.90;;;;;;5049279;28;20048;-74
2022/05/13 07:19:04;;;;;;;6.38;3.20;;;13.60;99.90;;;;;;5031408;28;20036;-75
2022/05/13 07:21:30;;;;;;;12.30;4.45;;;13.60;99.90;;;;;;5033342;28;20033;-74
2022/05/13 07:23:56;;;;;;;14.10;2.92;;;13.60;99.90;;;;;;5030729;28;20056;-73
2022/05/13 07:26:22;;;;;;;10.60;3.17;;;13.70;99.90;;;;;;5031525;28;20057;-73
2022/05/13 07:28:48;;;;;;;9.88;3.15;;;13.80;99.90;;;;;;5047176;28;20041;-73
2022/05/13 07:31:14;;;;;;;6.47;2.50;;;14.00;99.90;;;;;;5048919;28;20091;-74
2022/05/13 07:33:40;;;;;;;9.00;3.10;;;14.10;99.90;;;;;;5048741;28;20128;-73
2022/05/13 07:36:06;;;;;;;8.32;3.15;;;14.20;99.90;;;;;;5030845;28;20083;-74
2022/05/13 07:38:34;;;;;;;8.73;3.25;;;14.20;99.90;;;;;;5047809;28;20068;-73
2022/05/13 07:41:19;;;;;;;10.32;3.47;;;14.20;99.90;;;;;;5034420;28;20041;-74
2022/05/13 07:43:45;;;;;;;9.65;3.20;;;14.30;99.90;;;;;;5048951;28;20041;-75
2022/05/13 07:46:13;;;;;;;8.20;2.50;;;14.30;99.90;;;;;;5001532;28;20057;-74
2022/05/13 07:48:40;;;;;;;8.35;3.15;;;14.50;99.90;;;;;;5032246;28;20037;-75
2022/05/13 07:51:07;;;;;;;9.70;2.33;;;14.70;99.90;;;;;;5015669;28;20124;-74
2022/05/13 07:53:33;;;;;;;7.22;2.45;;;14.80;99.90;;;;;;5048448;28;20494;-74
2022/05/13 07:55:59;;;;;;;7.45;2.30;;;14.60;99.90;;;;;;5030467;28;20045;-74
2022/05/13 07:58:24;;;;;;;7.72;2.22;;;14.70;99.90;;;;;;5012425;28;20105;-74
2022/05/13 08:00:50;;;;;;;7.15;2.60;;;14.80;99.90;;;;;;5024708;28;20521;-74
2022/05/13 08:03:17;;;;;;;10.00;2.10;;;14.90;99.90;;;;;;5034311;28;20136;-74
2022/05/13 08:05:51;;;;;;;5.57;2.05;;;15.00;99.90;;;;;;5027966;28;20046;-75
2022/05/13 08:08:26;;;;;;;10.50;2.60;;;15.20;99.90;;;;;;5041100;28;20486;-74
2022/05/13 08:10:54;;;;;;;7.43;2.33;;;15.20;99.90;;;;;;5049188;28;20119;-74
2022/05/13 08:13:21;;;;;;;6.03;2.33;;;15.40;99.90;;;;;;5035930;28;20099;-74
2022/05/13 08:15:48;;;;;;;7.32;2.38;;;15.50;99.90;;;;;;5050369;28;20047;-74
2022/05/13 08:18:15;;;;;;;8.43;2.50;;;15.70;99.90;;;;;;5052360;28;20107;-73
2022/05/13 08:20:41;;;;;;;7.60;2.60;;;15.90;99.90;;;;;;5046017;28;20447;-74
2022/05/13 08:23:08;;;;;;;10.70;3.20;;;15.90;99.90;;;;;;5019341;28;20045;-74
2022/05/13 08:25:34;;;;;;;8.57;2.22;;;15.80;99.90;;;;;;5047619;28;20037;-74
2022/05/13 08:28:00;;;;;;;11.13;3.58;;;15.90;99.90;;;;;;5033892;28;20040;-74
2022/05/13 08:30:26;;;;;;;4.18;2.08;;;16.10;99.70;;;;;;5051490;28;20044;-74
2022/05/13 08:32:52;;;;;;;4.50;1.63;;;16.10;99.10;;;;;;5036943;28;20037;-74
2022/05/13 08:35:18;;;;;;;3.65;1.92;;;16.00;99.10;;;;;;5040739;28;20037;-74
2022/05/13 08:37:52;;;;;;;8.45;1.92;;;15.80;98.60;;;;;;5016634;28;20098;-73
2022/05/13 08:40:47;;;;;;;8.40;2.20;;;15.70;98.30;;;;;;5034130;28;20115;-73
2022/05/13 08:43:26;;;;;;;5.57;2.40;;;15.60;98.80;;;;;;5050241;28;20047;-74
2022/05/13 08:46:07;;;;;;;6.53;2.33;;;15.50;98.80;;;;;;5029336;28;20044;-75
2022/05/13 08:48:51;;;;;;;6.55;1.92;;;15.70;98.40;;;;;;5037620;28;20128;-74
2022/05/13 08:51:27;;;;;;;7.70;2.10;;;15.60;98.50;;;;;;5033442;28;20037;-74
2022/05/13 08:54:21;;;;;;;6.03;1.88;;;15.60;98.80;;;;;;5034703;28;20087;-73
2022/05/13 08:56:50;;;;;;;5.82;2.10;;;15.40;98.60;;;;;;5033264;28;20132;-74
2022/05/13 08:59:22;;;;;;;3.95;1.52;;;15.40;99.00;;;;;;5049508;28;20045;-73
2022/05/13 09:02:10;;;;;;;6.30;2.00;;;15.30;98.30;;;;;;5033591;28;20533;-74
2022/05/13 09:04:40;;;;;;;4.63;1.98;;;15.30;98.90;;;;;;5030924;28;20073;-75
2022/05/13 09:07:18;;;;;;;6.70;2.13;;;15.50;98.70;;;;;;5043647;28;20041;-74
2022/05/13 09:09:47;;;;;;;5.70;1.75;;;15.50;98.60;;;;;;5039720;28;20033;-74
2022/05/13 09:12:20;;;;;;;5.32;1.60;;;15.50;98.80;;;;;;5032314;28;20045;-74
2022/05/13 09:15:04;;;;;;;3.65;1.70;;;15.50;98.30;;;;;;5025419;28;20056;-74
2022/05/13 09:17:38;;;;;;;5.47;1.90;;;15.80;98.10;;;;;;5044281;28;20118;-74
2022/05/13 09:20:08;;;;;;;4.93;1.95;;;16.00;97.90;;;;;;5031302;28;20495;-74
2022/05/13 09:22:42;;;;;;;4.97;2.08;;;16.00;97.70;;;;;;5045085;28;20048;-74
2022/05/13 09:25:17;;;;;;;3.30;1.85;;;16.00;97.70;;;;;;5042452;28;20053;-74
2022/05/13 09:27:46;;;;;;;4.85;1.80;;;15.80;97.80;;;;;;5061397;28;20049;-74
2022/05/13 09:30:17;;;;;;;4.28;1.90;;;15.70;97.90;;;;;;5040724;28;20039;-74
2022/05/13 09:32:43;;;;;;;3.90;1.70;;;15.90;98.10;;;;;;5032634;28;20037;-73
2022/05/13 09:35:39;;;;;;;6.35;2.10;;;16.30;98.00;;;;;;5048609;28;20044;-74
2022/05/13 09:38:18;;;;;;;7.53;2.08;;;16.80;97.10;;;;;;5045482;28;20490;-74
2022/05/13 09:41:00;;;;;;;4.45;1.83;;;16.80;95.90;;;;;;5041462;28;20044;-74
2022/05/13 09:43:36;;;;;;;5.72;1.63;;;16.90;96.00;;;;;;5045762;28;20099;-75
2022/05/13 09:46:08;;;;;;;3.80;1.70;;;16.90;95.30;;;;;;5050472;28;20036;-73
2022/05/13 09:48:50;;;;;;;5.15;1.80;;;16.80;95.70;;;;;;5033126;28;20502;-74
2022/05/13 09:51:38;;;;;;;9.05;2.28;;;16.60;95.50;;;;;;5030102;28;20501;-73
2022/05/13 09:54:05;;;;;;;3.50;1.90;;;16.50;95.70;;;;;;5039529;28;20048;-73
2022/05/13 09:56:43;;;;;;;4.60;1.92;;;16.40;96.00;;;;;;5035629;28;20048;-73
2022/05/13 09:59:26;;;;;;;4.20;1.67;;;16.20;95.90;;;;;;5033364;28;20045;-74
2022/05/13 10:01:53;;;;;;;4.78;1.40;;;16.00;96.50;;;;;;5035638;28;20094;-73
2022/05/13 10:04:22;;;;;;;4.93;1.42;;;16.00;96.70;;;;;;5024159;28;20124;-73
2022/05/13 10:06:48;;;;;;;3.95;1.60;;;16.00;96.30;;;;;;5051295;28;20037;-74
2022/05/13 10:15:27;;;;;;;4.50;1.60;;;16.20;96.20;;;;;;5030150;28;20049;-73
2022/05/13 10:18:23;;;;;;;3.28;1.83;;;16.10;95.90;;;;;;5045788;28;20395;-73
2022/05/13 10:20:53;;;;;;;8.93;1.90;;;16.10;96.00;;;;;;5043334;28;20055;-72
2022/05/13 10:23:27;;;;;;;3.25;1.58;;;16.00;96.30;;;;;;5041390;28;20060;-73
2022/05/13 10:26:05;;;;;;;4.50;1.63;;;16.00;96.50;;;;;;5047128;28;20059;-73
2022/05/13 10:28:52;;;;;;;5.57;2.00;;;16.00;96.80;;;;;;5031123;28;20079;-73
2022/05/13 10:31:30;;;;;;;6.13;1.90;;;16.00;97.10;;;;;;5021146;28;20052;-73
2022/05/13 10:34:37;;;;;;;4.15;1.58;;;16.30;97.40;;;;;;5014654;28;20398;-82
2022/05/13 10:37:13;;;;;;;4.85;2.10;;;16.80;97.20;;;;;;5033288;28;20041;-85
2022/05/13 10:39:51;;;;;;;8.15;2.15;;;17.20;96.70;;;;;;5048182;28;20498;-81
2022/05/13 10:42:35;;;;;;;7.00;2.10;;;17.50;96.50;;;;;;5032859;28;20060;-80
2022/05/13 10:45:05;;;;;;;4.55;2.20;;;17.60;95.70;;;;;;5030501;28;20045;-83
2022/05/13 10:47:43;;;;;;;4.68;1.90;;;17.70;95.90;;;;;;5040292;28;20044;-80
2022/05/13 10:50:18;;;;;;;6.70;2.58;;;17.50;94.80;;;;;;5046527;28;20039;-84
2022/05/13 10:53:02;;;;;;;5.72;1.75;;;17.50;95.60;;;;;;5020562;28;20395;-83
2022/05/13 10:55:50;;;;;;;2.80;1.63;;;17.50;95.50;;;;;;5048212;28;20033;-82
2022/05/13 10:58:43;;;;;;;7.43;2.03;;;17.30;94.80;;;;;;5038182;28;20040;-81
2022/05/13 11:01:40;;;;;;;5.90;1.70;;;17.20;95.00;;;;;;5018709;28;20045;-80
2022/05/13 11:04:18;;;;;;;8.02;1.90;;;17.20;95.20;;;;;;5039136;28;20042;-82
2022/05/13 11:07:21;;;;;;;5.43;1.95;;;17.50;95.20;;;;;;5036184;28;20099;-80
2022/05/13 11:09:55;;;;;;;10.00;1.95;;;17.70;94.20;;;;;;5020966;28;20067;-81
2022/05/13 11:12:42;;;;;;;5.05;1.75;;;17.50;94.00;;;;;;5030195;28;20040;-83
2022/05/13 11:15:38;;;;;;;5.47;1.65;;;17.30;93.80;;;;;;5042332;28;20049;-83
2022/05/13 11:18:34;;;;;;;5.35;2.22;;;17.10;94.10;;;;;;5040070;28;20094;-81
2022/05/13 11:21:06;;;;;;;9.18;2.35;;;16.90;94.30;;;;;;5027519;28;20048;-83
2022/05/13 11:23:38;;;;;;;6.93;2.20;;;16.90;94.70;;;;;;5021794;28;20041;-81
2022/05/13 11:26:28;;;;;;;6.93;2.05;;;16.90;94.70;;;;;;5044320;28;20124;-80
2022/05/13 11:29:32;;;;;;;8.48;2.45;;;17.20;94.90;;;;;;5037988;28;20120;-82
2022/05/13 11:32:23;;;;;;;5.63;1.90;;;17.90;94.00;;;;;;5018700;28;20107;-82
2022/05/13 11:34:58;;;;;;;7.28;2.40;;;18.20;93.80;;;;;;5021352;28;20148;-82
2022/05/13 11:37:29;;;;;;;4.05;1.73;;;18.40;92.60;;;;;;5039190;28;20056;-82
2022/05/13 11:40:12;;;;;;;9.85;1.98;;;18.30;92.60;;;;;;5042962;28;20589;-82
2022/05/13 11:43:26;;;;;;;6.40;2.00;;;18.20;91.90;;;;;;5038421;28;20043;-83
2022/05/13 11:46:21;;;;;;;6.55;2.15;;;18.10;91.80;;;;;;5050790;28;20128;-84
2022/05/13 11:49:02;;;;;;;3.97;1.70;;;18.10;91.90;;;;;;5020462;28;20056;-80
2022/05/13 11:51:31;;;;;;;4.63;1.67;;;17.80;91.80;;;;;;5052900;28;20128;-80
2022/05/13 11:53:59;;;;;;;3.90;1.60;;;17.90;92.00;;;;;;5033137;28;20041;-81
2022/05/13 11:56:29;;;;;;;5.50;1.95;;;17.80;91.70;;;;;;5051806;28;20032;-80
2022/05/13 11:59:11;;;;;;;8.55;2.17;;;17.60;91.50;;;;;;5034520;28;20125;-78
2022/05/13 12:01:43;;;;;;;;;;;17.70;91.90;;;;;;5025311;28;20080;-80
2022/05/13 12:04:12;;;;;;;7.63;1.60;;;17.90;91.30;;;;;;5047538;28;19921;-80
2022/05/13 12:06:50;;;;;;;4.78;1.83;;;17.90;91.30;;;;;;5028242;28;20045;-80
2022/05/13 12:09:37;;;;;;;7.70;2.20;;;17.80;91.20;;;;;;5018285;28;20510;-77
2022/05/13 12:12:31;;;;;;;5.97;2.38;;;17.70;91.40;;;;;;5031476;28;20117;-79
2022/05/13 12:15:22;;;;;;;6.28;2.38;;;17.50;91.40;;;;;;5039557;28;20398;-79
2022/05/13 12:17:58;;;;;;;5.30;2.08;;;17.50;91.70;;;;;;5048097;28;20037;-80
2022/05/13 12:20:53;;;;;;;4.20;1.90;;;17.40;91.90;;;;;;5048189;28;20045;-79
2022/05/13 12:23:21;;;;;;;5.95;1.95;;;17.70;92.50;;;;;;5041210;28;20129;-78
2022/05/13 12:26:02;;;;;;;7.30;2.10;;;17.80;92.10;;;;;;5044925;28;20060;-80
2022/05/13 12:28:55;;;;;;;4.72;2.67;;;17.70;91.90;;;;;;5051419;28;20040;-82
2022/05/13 12:31:27;;;;;;;10.48;2.42;;;17.60;91.70;;;;;;5047338;28;20549;-80
2022/05/13 12:39:56;;;;;;;5.82;1.88;;;18.00;90.90;;;;;;5036848;28;20099;-80
2022/05/13 12:42:46;;;;;;;5.72;2.22;;;18.40;90.70;;;;;;5050692;28;20044;-79
2022/05/13 12:45:21;;;;;;;5.25;1.77;;;18.60;89.30;;;;;;5018792;28;20041;-78
2022/05/13 12:48:07;;;;;;;5.05;1.98;;;18.80;88.90;;;;;;5031786;28;20044;-78
2022/05/13 12:50:50;;;;;;;6.75;2.15;;;18.90;87.30;;;;;;5054341;28;20033;-81
2022/05/13 12:53:28;;;;;;;4.65;1.95;;;19.20;87.40;;;;;;5051892;28;20056;-83
2022/05/13 12:55:58;;;;;;;13.25;2.05;;;19.20;86.80;;;;;;5041190;28;20124;-78
2022/05/13 12:58:27;;;;;;;4.22;1.70;;;19.00;87.10;;;;;;5038796;28;20029;-81
2022/05/13 13:00:54;;;;;;;8.15;1.75;;;19.00;86.70;;;;;;5031260;28;20041;-79
2022/05/13 13:03:22;;;;;;;4.82;1.50;;;19.00;86.70;;;;;;5034619;28;20045;-82
2022/05/13 13:06:02;;;;;;;9.98;2.10;;;19.00;86.00;;;;;;5048158;28;20155;-81
2022/05/13 13:08:37;;;;;;;7.82;1.90;;;19.00;86.00;;;;;;5024947;28;20068;-84
2022/05/13 13:11:23;;;;;;;6.80;1.90;;;19.20;84.10;;;;;;5050611;28;20033;-80
2022/05/13 13:14:15;;;;;;;5.95;1.77;;;19.40;83.10;;;;;;5030491;28;20053;-79
2022/05/13 13:16:51;;;;;;;5.03;1.60;;;19.50;83.00;;;;;;5023476;28;20049;-79
2022/05/13 13:19:21;;;;;;;7.38;1.98;;;19.50;82.60;;;;;;5016912;28;20037;-79
2022/05/13 13:21:53;;;;;;;9.27;2.20;;;19.50;81.70;;;;;;5032867;28;20527;-79
2022/05/13 13:24:24;;;;;;;4.40;1.60;;;19.50;82.20;;;;;;5051818;28;20474;-81
2022/05/13 13:26:57;;;;;;;8.82;2.03;;;19.20;81.50;;;;;;5024775;28;20033;-82
2022/05/13 13:29:30;;;;;;;2.50;1.60;;;18.90;82.00;;;;;;5036811;28;20033;-79
2022/05/13 13:31:59;;;;;;;4.47;1.95;;;18.80;83.70;;;;;;5039325;28;20045;-78